Terminal Aerodrome Forecast
Issued by NWS

Home | Current Version | Previous Version | Text Only | Print | Product List | Glossary On
Versions: 1 2 3 4 5 6 7 8 9 10 11 12 13 14 15 16 17 18 19 20 21
210
FTUS44 KLZK 291424 AAA
TAFLIT
TAF AMD
KLIT 291424Z 2914/3012 24009KT P6SM BKN010 BKN100
      TEMPO 2914/2916 SCT010 SCT018
     FM291600 24005KT P6SM VCTS SCT018 SCT040CB BKN090
     FM300300 VRB03KT P6SM SCT040 SCT100
     FM300800 VRB04KT P6SM VCTS SCT025CB OVC050 PROB30 3008/3012 4SM
      TSRA BKN025CB=

USA.gov is the U.S. government's official web portal to all federal, state and local government web resources and services.